createdAt,value
2019-05-01T00:00:27.199Z,99.22
2019-05-01T00:01:27.132Z,99.22
2019-05-01T00:02:27.129Z,99.22
2019-05-01T00:03:27.103Z,99.22
2019-05-01T00:04:27.100Z,99.22
2019-05-01T00:05:27.080Z,98.70
2019-05-01T00:06:27.159Z,99.32
2019-05-01T00:07:27.061Z,99.79
2019-05-01T00:08:27.051Z,99.48
2019-05-01T00:09:27.037Z,99.90
2019-05-01T00:10:27.030Z,99.58
2019-05-01T00:11:27.013Z,99.63
2019-05-01T00:12:27.063Z,99.84
2019-05-01T00:13:26.991Z,99.63
2019-05-01T00:14:26.980Z,99.84
2019-05-01T00:15:26.968Z,99.73
2019-05-01T00:16:26.956Z,99.84
2019-05-01T00:17:27.889Z,99.94
2019-05-01T00:18:26.996Z,99.99
2019-05-01T00:19:26.926Z,99.63
2019-05-01T00:20:26.937Z,99.99
2019-05-01T00:21:26.902Z,99.99
2019-05-01T00:22:26.895Z,99.99
2019-05-01T00:23:26.884Z,99.99
2019-05-01T00:24:27.084Z,99.99
2019-05-01T00:25:26.862Z,99.99
2019-05-01T00:26:26.897Z,99.99
2019-05-01T00:27:26.835Z,99.99
2019-05-01T00:28:26.836Z,99.99
2019-05-01T00:29:26.820Z,99.99
2019-05-01T00:30:30.126Z,99.99
2019-05-01T00:31:26.792Z,99.99
2019-05-01T00:32:26.815Z,99.99
2019-05-01T00:33:26.780Z,99.99
2019-05-01T00:34:26.755Z,99.99
2019-05-01T00:35:26.745Z,99.99
2019-05-01T00:36:26.954Z,99.99
2019-05-01T00:37:26.737Z,99.99
2019-05-01T00:38:26.711Z,99.99
2019-05-01T00:39:26.734Z,99.99
2019-05-01T00:40:26.692Z,99.99
2019-05-01T00:41:26.678Z,99.99
2019-05-01T00:42:26.731Z,99.99
2019-05-01T00:43:26.668Z,99.99
2019-05-01T00:44:26.646Z,99.99
2019-05-01T00:45:26.634Z,99.99
2019-05-01T00:46:26.653Z,99.99
2019-05-01T00:47:26.611Z,99.99
2019-05-01T00:48:26.660Z,99.99
2019-05-01T00:49:26.589Z,99.99
2019-05-01T00:50:26.577Z,99.99
2019-05-01T00:51:26.565Z,99.99
2019-05-01T00:52:26.554Z,99.99
2019-05-01T00:53:26.543Z,99.99
2019-05-01T00:54:26.606Z,99.99
2019-05-01T00:55:26.533Z,99.99
2019-05-01T00:56:26.519Z,99.99
2019-05-01T00:57:26.506Z,99.99
2019-05-01T00:58:26.491Z,99.99
2019-05-01T00:59:26.479Z,99.99
2019-05-01T01:00:26.542Z,99.99
2019-05-01T01:01:26.456Z,99.99
2019-05-01T01:02:26.456Z,99.99
2019-05-01T01:03:26.431Z,99.99
2019-05-01T01:04:26.425Z,99.99
2019-05-01T01:05:26.409Z,99.99
2019-05-01T01:06:26.461Z,99.99
2019-05-01T01:07:26.388Z,99.99
2019-05-01T01:08:26.376Z,99.99
2019-05-01T01:09:26.364Z,99.99
2019-05-01T01:10:26.365Z,99.99
2019-05-01T01:11:26.351Z,99.99
2019-05-01T01:12:26.396Z,99.99
2019-05-01T01:13:26.320Z,99.99
2019-05-01T01:14:26.310Z,99.99
2019-05-01T01:15:26.300Z,99.99
2019-05-01T01:16:26.287Z,99.99
2019-05-01T01:17:26.277Z,99.99
2019-05-01T01:18:26.328Z,99.99
2019-05-01T01:19:26.267Z,99.99
2019-05-01T01:20:26.246Z,99.99
2019-05-01T01:21:26.286Z,99.99
2019-05-01T01:22:26.221Z,99.99
2019-05-01T01:23:26.228Z,99.99
2019-05-01T01:24:26.404Z,99.99
2019-05-01T01:25:26.192Z,99.58
2019-05-01T01:26:26.174Z,99.54
2019-05-01T01:27:26.165Z,99.23
2019-05-01T01:28:26.153Z,99.17
2019-05-01T01:29:26.143Z,98.66
2019-05-01T01:30:26.211Z,98.10
2019-05-01T01:31:26.120Z,97.94
2019-05-01T01:32:26.129Z,97.99
2019-05-01T01:33:26.100Z,97.83
2019-05-01T01:34:26.095Z,97.83
2019-05-01T01:35:26.077Z,97.94
2019-05-01T01:36:26.141Z,97.73
2019-05-01T01:37:26.051Z,97.98
2019-05-01T01:38:26.041Z,97.47
2019-05-01T01:39:26.034Z,97.20
2019-05-01T01:40:26.026Z,97.61
2019-05-01T01:41:26.012Z,97.41
2019-05-01T01:42:26.061Z,97.55
2019-05-01T01:43:25.994Z,98.58
2019-05-01T01:44:25.996Z,99.21
2019-05-01T01:45:25.965Z,99.31
2019-05-01T01:46:25.951Z,99.21
2019-05-01T01:47:25.940Z,98.90
2019-05-01T01:48:25.992Z,99.72
2019-05-01T01:49:25.924Z,99.99
2019-05-01T01:50:25.908Z,99.99
2019-05-01T01:51:25.900Z,99.99
2019-05-01T01:52:25.900Z,99.63
2019-05-01T01:53:25.884Z,99.79
2019-05-01T01:54:25.929Z,99.27
2019-05-01T01:55:25.865Z,99.07
2019-05-01T01:56:25.840Z,99.27
2019-05-01T01:57:25.832Z,99.07
2019-05-01T01:58:25.820Z,98.45
2019-05-01T01:59:25.813Z,98.45
2019-05-01T02:00:25.859Z,98.24
2019-05-01T02:01:25.793Z,98.20
2019-05-01T02:02:25.779Z,98.24
2019-05-01T02:03:25.768Z,98.30
2019-05-01T02:04:25.753Z,97.78
2019-05-01T02:05:25.739Z,97.78
2019-05-01T02:06:25.942Z,97.78
2019-05-01T02:07:25.730Z,97.74
2019-05-01T02:08:25.711Z,97.02
2019-05-01T02:09:25.696Z,97.02
2019-05-01T02:10:25.785Z,96.30
2019-05-01T02:11:25.702Z,96.50
2019-05-01T02:12:25.726Z,96.61
2019-05-01T02:13:25.652Z,96.50
2019-05-01T02:14:25.640Z,96.20
2019-05-01T02:15:25.633Z,96.61
2019-05-01T02:16:25.641Z,96.24
2019-05-01T02:17:25.611Z,96.24
2019-05-01T02:18:25.679Z,96.24
2019-05-01T02:19:25.589Z,97.06
2019-05-01T02:20:25.572Z,96.66
2019-05-01T02:21:25.567Z,95.93
2019-05-01T02:22:25.551Z,96.34
2019-05-01T02:23:25.538Z,96.81
2019-05-01T02:24:25.601Z,96.71
2019-05-01T02:25:25.524Z,96.30
2019-05-01T02:26:25.507Z,95.78
2019-05-01T02:27:25.518Z,95.64
2019-05-01T02:28:25.506Z,95.43
2019-05-01T02:29:25.472Z,95.43
2019-05-01T02:30:25.527Z,95.64
2019-05-01T02:31:28.052Z,95.64
2019-05-01T02:32:25.462Z,95.64
2019-05-01T02:33:25.430Z,95.74
2019-05-01T02:34:25.418Z,95.53
2019-05-01T02:35:25.425Z,96.05
2019-05-01T02:36:25.599Z,95.53
2019-05-01T02:37:25.422Z,95.74
2019-05-01T02:38:25.383Z,95.59
2019-05-01T02:39:25.375Z,95.59
2019-05-01T02:40:25.349Z,95.74
2019-05-01T02:41:25.343Z,95.53
2019-05-01T02:42:25.390Z,96.05
2019-05-01T02:43:25.318Z,95.80
2019-05-01T02:44:25.306Z,95.70
2019-05-01T02:45:25.292Z,95.80
2019-05-01T02:46:25.277Z,95.84
2019-05-01T02:47:25.287Z,95.70
2019-05-01T02:48:25.350Z,96.83
2019-05-01T02:49:25.274Z,96.00
2019-05-01T02:50:25.237Z,95.59
2019-05-01T02:51:25.224Z,95.45
2019-05-01T02:52:25.209Z,95.45
2019-05-01T02:53:25.218Z,95.14
2019-05-01T02:54:25.248Z,95.14
2019-05-01T02:55:25.203Z,95.45
2019-05-01T02:56:25.167Z,95.24
2019-05-01T02:57:25.152Z,95.24
2019-05-01T02:58:25.138Z,95.03
2019-05-01T02:59:25.131Z,95.65
2019-05-01T03:00:25.184Z,95.24
2019-05-01T03:01:25.122Z,95.14
2019-05-01T03:02:25.096Z,95.14
2019-05-01T03:03:25.098Z,95.45
2019-05-01T03:04:25.073Z,95.45
2019-05-01T03:05:25.062Z,95.45
2019-05-01T03:06:25.116Z,95.75
2019-05-01T03:07:25.036Z,95.75
2019-05-01T03:08:25.023Z,95.61
2019-05-01T03:09:25.028Z,95.86
2019-05-01T03:10:25.008Z,95.24
2019-05-01T03:11:24.992Z,95.65
2019-05-01T03:12:25.039Z,95.45
2019-05-01T03:13:24.965Z,95.24
2019-05-01T03:14:24.999Z,95.55
2019-05-01T03:15:24.941Z,95.96
2019-05-01T03:16:24.931Z,95.75
2019-05-01T03:17:24.918Z,95.24
2019-05-01T03:18:24.980Z,95.75
2019-05-01T03:19:24.901Z,95.55
2019-05-01T03:20:24.933Z,95.34
2019-05-01T03:21:24.873Z,95.50
2019-05-01T03:22:24.862Z,94.58
2019-05-01T03:23:24.851Z,94.37
2019-05-01T03:24:25.043Z,94.07
2019-05-01T03:25:24.832Z,94.07
2019-05-01T03:26:24.812Z,94.23
2019-05-01T03:27:24.804Z,93.71
2019-05-01T03:28:24.795Z,93.65
2019-05-01T03:29:24.779Z,93.55
2019-05-01T03:30:24.841Z,93.86
2019-05-01T03:31:24.758Z,94.68
2019-05-01T03:32:24.746Z,94.27
2019-05-01T03:33:24.745Z,94.37
2019-05-01T03:34:24.750Z,93.96
2019-05-01T03:35:24.713Z,94.07
2019-05-01T03:36:24.765Z,94.17
2019-05-01T03:37:24.686Z,93.92
2019-05-01T03:38:24.674Z,94.33
2019-05-01T03:39:24.671Z,93.61
2019-05-01T03:40:24.665Z,93.61
2019-05-01T03:41:24.638Z,92.85
2019-05-01T03:42:24.689Z,93.16
2019-05-01T03:43:24.615Z,92.64
2019-05-01T03:44:24.602Z,93.05
2019-05-01T03:45:24.592Z,92.33
2019-05-01T03:46:24.587Z,91.82
2019-05-01T03:47:24.572Z,92.08
2019-05-01T03:48:24.763Z,92.13
2019-05-01T03:49:24.545Z,91.99
2019-05-01T03:50:24.537Z,91.67
2019-05-01T03:51:24.521Z,91.82
2019-05-01T03:52:24.512Z,92.03
2019-05-01T03:53:24.531Z,91.72
2019-05-01T03:54:24.551Z,91.93
2019-05-01T03:55:24.478Z,91.78
2019-05-01T03:56:24.468Z,91.16
2019-05-01T03:57:24.452Z,90.95
2019-05-01T03:58:24.442Z,90.75
2019-05-01T03:59:24.431Z,90.65
2019-05-01T04:00:24.479Z,90.55
2019-05-01T04:01:24.420Z,90.65
2019-05-01T04:02:33.747Z,90.75
2019-05-01T04:03:25.383Z,90.65
2019-05-01T04:04:24.373Z,90.95
2019-05-01T04:05:24.359Z,90.85
2019-05-01T04:06:24.557Z,91.27
2019-05-01T04:07:24.363Z,91.47
2019-05-01T04:08:24.326Z,91.47
2019-05-01T04:09:24.337Z,90.65
2019-05-01T04:10:24.391Z,90.81
2019-05-01T04:11:24.291Z,90.81
2019-05-01T04:12:24.350Z,90.65
2019-05-01T04:13:24.274Z,90.55
2019-05-01T04:14:24.258Z,89.78
2019-05-01T04:15:24.248Z,90.09
2019-05-01T04:16:24.239Z,89.69
2019-05-01T04:17:24.229Z,89.69
2019-05-01T04:18:24.295Z,89.69
2019-05-01T04:19:24.217Z,89.69
2019-05-01T04:20:24.203Z,89.78
2019-05-01T04:21:24.178Z,90.61
2019-05-01T04:22:24.167Z,91.02
2019-05-01T04:23:24.170Z,91.02
2019-05-01T04:24:24.360Z,90.71
2019-05-01T04:25:24.133Z,90.61
2019-05-01T04:26:24.127Z,90.56
2019-05-01T04:27:24.138Z,91.84
2019-05-01T04:28:24.099Z,91.84
2019-05-01T04:29:24.101Z,92.04
2019-05-01T04:30:24.170Z,92.14
2019-05-01T04:31:24.075Z,92.97
2019-05-01T04:32:24.056Z,92.86
2019-05-01T04:33:24.047Z,92.86
2019-05-01T04:34:24.034Z,92.97
2019-05-01T04:35:24.020Z,92.76
2019-05-01T04:36:24.244Z,92.76
2019-05-01T04:37:24.031Z,93.07
2019-05-01T04:38:23.987Z,92.25
2019-05-01T04:39:24.012Z,92.25
2019-05-01T04:40:23.966Z,91.42
2019-05-01T04:41:23.951Z,90.26
2019-05-01T04:42:24.017Z,89.84
2019-05-01T04:43:23.928Z,89.50
2019-05-01T04:44:23.921Z,88.82
2019-05-01T04:45:23.907Z,89.19
2019-05-01T04:46:23.895Z,89.19
2019-05-01T04:47:23.881Z,89.09
2019-05-01T04:48:24.090Z,89.39
2019-05-01T04:49:23.858Z,88.88
2019-05-01T04:50:23.847Z,88.74
2019-05-01T04:51:23.837Z,87.92
2019-05-01T04:52:23.886Z,88.12
2019-05-01T04:53:23.813Z,87.30
2019-05-01T04:54:23.864Z,87.61
2019-05-01T04:55:23.932Z,87.92
2019-05-01T04:56:23.779Z,87.61
2019-05-01T04:57:23.782Z,87.10
2019-05-01T04:58:23.789Z,87.10
2019-05-01T04:59:23.745Z,86.90
2019-05-01T05:00:23.794Z,87.10
2019-05-01T05:01:23.722Z,86.99
2019-05-01T05:02:23.711Z,86.38
2019-05-01T05:03:23.703Z,86.69
2019-05-01T05:04:23.686Z,86.99
2019-05-01T05:05:23.790Z,87.10
2019-05-01T05:06:23.745Z,87.30
2019-05-01T05:07:23.652Z,87.10
2019-05-01T05:08:23.732Z,87.65
2019-05-01T05:09:23.647Z,87.51
2019-05-01T05:10:23.676Z,87.92
2019-05-01T05:11:23.623Z,87.45
2019-05-01T05:12:23.805Z,87.96
2019-05-01T05:13:23.586Z,87.55
2019-05-01T05:14:23.658Z,87.34
2019-05-01T05:15:23.612Z,87.41
2019-05-01T05:16:23.599Z,87.76
2019-05-01T05:17:23.539Z,87.51
2019-05-01T05:18:23.615Z,86.99
2019-05-01T05:19:23.514Z,87.30
2019-05-01T05:20:23.564Z,87.06
2019-05-01T05:21:23.543Z,87.20
2019-05-01T05:22:23.506Z,87.26
2019-05-01T05:23:23.469Z,85.83
2019-05-01T05:24:23.551Z,86.24
2019-05-01T05:25:23.593Z,86.71
2019-05-01T05:26:23.439Z,85.89
2019-05-01T05:27:23.557Z,86.61
2019-05-01T05:28:23.463Z,85.96
2019-05-01T05:29:23.418Z,85.44
2019-05-01T05:30:23.957Z,85.55
2019-05-01T05:31:23.392Z,85.40
2019-05-01T05:32:23.366Z,84.69
2019-05-01T05:33:23.356Z,84.89
2019-05-01T05:34:23.519Z,85.16
2019-05-01T05:35:23.357Z,84.85
2019-05-01T05:36:23.549Z,82.91
2019-05-01T05:37:23.341Z,82.87
2019-05-01T05:38:23.311Z,82.97
2019-05-01T05:39:23.297Z,83.07
2019-05-01T05:40:23.280Z,83.28
2019-05-01T05:41:23.333Z,83.28
2019-05-01T05:42:23.567Z,83.28
2019-05-01T05:43:23.304Z,83.24
2019-05-01T05:44:23.230Z,82.01
2019-05-01T05:45:23.251Z,82.12
2019-05-01T05:46:23.281Z,81.51
2019-05-01T05:47:25.525Z,81.60
2019-05-01T05:48:23.283Z,81.30
2019-05-01T05:49:23.215Z,81.40
2019-05-01T05:50:23.175Z,80.48
2019-05-01T05:51:23.167Z,80.18
2019-05-01T05:52:23.135Z,80.79
2019-05-01T05:53:23.125Z,81.40
2019-05-01T05:54:23.320Z,80.24
2019-05-01T05:55:23.111Z,81.20
2019-05-01T05:56:23.092Z,80.14
2019-05-01T05:57:23.077Z,79.83
2019-05-01T05:58:23.074Z,80.24
2019-05-01T05:59:23.070Z,79.73
2019-05-01T06:00:23.103Z,80.24
2019-05-01T06:01:23.034Z,77.69
2019-05-01T06:02:23.025Z,77.79
2019-05-01T06:03:31.066Z,77.96
2019-05-01T06:04:23.997Z,78.50
2019-05-01T06:05:22.985Z,78.16
2019-05-01T06:06:23.090Z,78.41
2019-05-01T06:07:23.011Z,78.50
2019-05-01T06:08:22.988Z,78.81
2019-05-01T06:09:23.042Z,77.59
2019-05-01T06:10:24.319Z,78.81
2019-05-01T06:11:22.921Z,78.50
2019-05-01T06:12:22.978Z,77.89
2019-05-01T06:13:23.162Z,77.59
2019-05-01T06:14:26.935Z,76.56
2019-05-01T06:15:22.917Z,77.79
2019-05-01T06:16:22.861Z,78.61
2019-05-01T06:17:23.825Z,78.00
2019-05-01T06:18:24.234Z,78.57
2019-05-01T06:19:22.823Z,78.37
2019-05-01T06:20:26.036Z,78.57
2019-05-01T06:21:22.841Z,78.67
2019-05-01T06:22:22.796Z,78.47
2019-05-01T06:23:22.795Z,78.47
2019-05-01T06:24:22.844Z,77.04
2019-05-01T06:25:25.160Z,77.25
2019-05-01T06:26:22.772Z,77.04
2019-05-01T06:27:22.733Z,76.87
2019-05-01T06:28:24.858Z,77.25
2019-05-01T06:29:22.716Z,76.46
2019-05-01T06:30:22.766Z,76.97
2019-05-01T06:31:23.491Z,78.71
2019-05-01T06:32:22.675Z,77.65
2019-05-01T06:33:22.667Z,78.20
2019-05-01T06:34:23.871Z,78.16
2019-05-01T06:35:23.850Z,76.53
2019-05-01T06:36:24.035Z,77.34
2019-05-01T06:37:25.391Z,76.93
2019-05-01T06:38:22.617Z,76.84
2019-05-01T06:39:22.597Z,76.63
2019-05-01T06:40:23.608Z,75.51
2019-05-01T06:41:22.633Z,76.19
2019-05-01T06:42:22.565Z,75.48
2019-05-01T06:43:25.386Z,76.09
2019-05-01T06:44:22.539Z,74.96
2019-05-01T06:45:22.527Z,75.57
2019-05-01T06:46:27.390Z,75.78
2019-05-01T06:47:23.712Z,75.07
2019-05-01T06:48:22.500Z,76.09
2019-05-01T06:49:24.398Z,74.45
2019-05-01T06:50:23.472Z,75.16
2019-05-01T06:51:22.458Z,75.07
2019-05-01T06:52:24.836Z,75.07
2019-05-01T06:53:23.497Z,73.64
2019-05-01T06:54:22.426Z,74.42
2019-05-01T06:55:26.563Z,74.52
2019-05-01T06:56:22.401Z,72.99
2019-05-01T06:57:22.412Z,74.28
2019-05-01T06:58:22.383Z,73.47
2019-05-01T06:59:26.285Z,72.65
2019-05-01T07:00:23.355Z,72.55
2019-05-01T07:01:24.003Z,71.67
2019-05-01T07:02:22.336Z,71.80
2019-05-01T07:03:22.322Z,71.70
2019-05-01T07:04:22.310Z,71.60
2019-05-01T07:05:22.360Z,71.94
2019-05-01T07:06:26.064Z,71.39
2019-05-01T07:07:25.431Z,71.60
2019-05-01T07:08:24.782Z,71.19
2019-05-01T07:09:28.007Z,71.39
2019-05-01T07:10:30.811Z,71.60
2019-05-01T07:11:23.255Z,70.65
2019-05-01T07:12:23.918Z,71.06
2019-05-01T07:13:23.262Z,71.56
2019-05-01T07:14:22.194Z,70.34
2019-05-01T07:15:26.920Z,70.45
2019-05-01T07:16:23.237Z,70.62
2019-05-01T07:17:22.164Z,70.21
2019-05-01T07:18:24.166Z,70.41
2019-05-01T07:19:22.136Z,70.01
2019-05-01T07:20:22.126Z,69.26
2019-05-01T07:21:22.852Z,69.77
2019-05-01T07:22:22.164Z,68.75
2019-05-01T07:23:22.111Z,68.32
2019-05-01T07:24:24.066Z,67.60
2019-05-01T07:25:23.066Z,66.99
2019-05-01T07:26:22.857Z,67.57
2019-05-01T07:27:23.759Z,67.27
2019-05-01T07:28:22.100Z,66.35
2019-05-01T07:29:22.024Z,66.05
2019-05-01T07:30:22.062Z,66.93
2019-05-01T07:31:26.113Z,66.63
2019-05-01T07:32:22.989Z,67.24
2019-05-01T07:33:21.976Z,67.50
2019-05-01T07:34:26.287Z,66.02
2019-05-01T07:35:22.953Z,65.44
2019-05-01T07:36:21.944Z,65.30
2019-05-01T07:37:25.885Z,65.78
2019-05-01T07:38:22.918Z,65.17
2019-05-01T07:39:21.908Z,64.87
2019-05-01T07:40:28.980Z,65.17
2019-05-01T07:41:22.883Z,65.07
2019-05-01T07:42:21.875Z,65.07
2019-05-01T07:43:23.892Z,65.68
2019-05-01T07:44:21.850Z,65.37
2019-05-01T07:45:21.844Z,65.68
2019-05-01T07:46:22.037Z,64.87
2019-05-01T07:47:25.885Z,64.43
2019-05-01T07:48:22.804Z,64.84
2019-05-01T07:49:21.794Z,64.94
2019-05-01T07:50:24.312Z,65.01
2019-05-01T07:51:22.976Z,65.48
2019-05-01T07:52:21.758Z,63.83
2019-05-01T07:53:23.887Z,63.35
2019-05-01T07:54:22.747Z,63.86
2019-05-01T07:55:21.724Z,63.06
2019-05-01T07:56:22.856Z,62.72
2019-05-01T07:57:23.269Z,63.15
2019-05-01T07:58:21.690Z,63.46
2019-05-01T07:59:22.807Z,62.52
2019-05-01T08:00:22.669Z,61.47
2019-05-01T08:01:21.701Z,60.77
2019-05-01T08:02:25.764Z,60.28
2019-05-01T08:03:22.896Z,60.39
2019-05-01T08:04:35.200Z,60.57
2019-05-01T08:05:22.609Z,59.85
2019-05-01T08:06:22.929Z,59.88
2019-05-01T08:07:21.604Z,60.42
2019-05-01T08:08:21.576Z,60.62
2019-05-01T08:09:21.770Z,60.08
2019-05-01T08:10:25.939Z,59.68
2019-05-01T08:11:22.541Z,59.34
2019-05-01T08:12:24.099Z,59.34
2019-05-01T08:13:21.518Z,58.03
2019-05-01T08:14:21.518Z,58.03
2019-05-01T08:15:22.609Z,58.13
2019-05-01T08:16:22.481Z,57.83
2019-05-01T08:17:21.471Z,56.71
2019-05-01T08:18:24.013Z,57.73
2019-05-01T08:19:22.448Z,58.11
2019-05-01T08:20:21.437Z,57.29
2019-05-01T08:21:26.038Z,56.38
2019-05-01T08:22:22.411Z,56.31
2019-05-01T08:23:21.403Z,56.99
2019-05-01T08:24:22.941Z,56.92
2019-05-01T08:25:21.389Z,57.90
2019-05-01T08:26:21.368Z,56.10
2019-05-01T08:27:21.441Z,56.54
2019-05-01T08:28:21.344Z,55.70
2019-05-01T08:29:21.338Z,55.40
2019-05-01T08:30:21.320Z,54.05
2019-05-01T08:31:23.063Z,54.26
2019-05-01T08:32:22.507Z,55.27
2019-05-01T08:33:21.328Z,54.46
2019-05-01T08:34:25.401Z,55.15
2019-05-01T08:35:22.260Z,55.04
2019-05-01T08:36:21.251Z,54.21
2019-05-01T08:37:22.534Z,52.84
2019-05-01T08:38:21.307Z,52.22
2019-05-01T08:39:21.216Z,51.73
2019-05-01T08:40:21.781Z,50.93
2019-05-01T08:41:21.194Z,49.97
2019-05-01T08:42:21.183Z,49.59
2019-05-01T08:43:21.177Z,49.33
2019-05-01T08:44:24.910Z,51.15
2019-05-01T08:45:22.147Z,48.63
2019-05-01T08:46:21.151Z,47.54
2019-05-01T08:47:25.959Z,48.07
2019-05-01T08:48:22.117Z,47.04
2019-05-01T08:49:21.107Z,45.79
2019-05-01T08:50:24.735Z,46.30
2019-05-01T08:51:22.080Z,45.64
2019-05-01T08:52:21.086Z,47.35
2019-05-01T08:53:22.097Z,46.37
2019-05-01T08:54:21.046Z,45.58
2019-05-01T08:55:21.039Z,47.58
2019-05-01T08:56:21.911Z,46.97
2019-05-01T08:57:21.015Z,48.06
2019-05-01T08:58:21.007Z,47.43
2019-05-01T08:59:23.982Z,46.75
2019-05-01T09:00:20.977Z,45.98
2019-05-01T09:01:20.977Z,47.22
2019-05-01T09:02:21.021Z,46.39
2019-05-01T09:03:20.959Z,45.58
2019-05-01T09:04:25.275Z,45.70
2019-05-01T09:05:28.883Z,45.81
2019-05-01T09:06:34.054Z,46.47
2019-05-01T09:07:24.080Z,45.82
2019-05-01T09:08:21.883Z,44.93
2019-05-01T09:09:20.875Z,44.83
2019-05-01T09:10:21.703Z,45.66
2019-05-01T09:11:20.858Z,46.89
2019-05-01T09:12:20.840Z,47.67
2019-05-01T09:13:23.722Z,44.81
2019-05-01T09:14:20.818Z,45.78
2019-05-01T09:15:20.808Z,45.03
2019-05-01T09:16:23.458Z,43.20
2019-05-01T09:17:21.792Z,42.16
2019-05-01T09:18:20.774Z,41.17
2019-05-01T09:19:20.973Z,39.67
2019-05-01T09:20:20.786Z,36.89
2019-05-01T09:21:20.739Z,38.27
2019-05-01T09:22:20.727Z,38.56
2019-05-01T09:23:20.719Z,39.72
2019-05-01T09:24:23.080Z,36.61
2019-05-01T09:25:21.760Z,38.09
2019-05-01T09:26:20.683Z,39.77
2019-05-01T09:27:23.761Z,39.95
2019-05-01T09:28:21.658Z,39.81
2019-05-01T09:29:20.647Z,38.89
2019-05-01T09:30:21.906Z,37.76
2019-05-01T09:31:21.833Z,39.11
2019-05-01T09:32:20.615Z,41.09
2019-05-01T09:33:20.602Z,41.11
2019-05-01T09:34:21.062Z,37.92
2019-05-01T09:35:20.579Z,36.89
2019-05-01T09:36:20.569Z,37.54
2019-05-01T09:37:20.786Z,39.78
2019-05-01T09:38:20.546Z,38.29
2019-05-01T09:39:20.535Z,39.55
2019-05-01T09:40:20.551Z,40.55
2019-05-01T09:41:20.518Z,40.85
2019-05-01T09:42:23.777Z,41.24
2019-05-01T09:43:20.697Z,40.83
2019-05-01T09:44:20.481Z,40.63
2019-05-01T09:45:20.471Z,39.41
2019-05-01T09:46:20.458Z,39.59
2019-05-01T09:47:20.446Z,38.93
2019-05-01T09:48:20.435Z,39.23
2019-05-01T09:49:20.507Z,40.79
2019-05-01T09:50:20.415Z,41.65
2019-05-01T09:51:20.404Z,41.51
2019-05-01T09:52:23.421Z,38.70
2019-05-01T09:53:20.383Z,39.78
2019-05-01T09:54:20.390Z,40.08
2019-05-01T09:55:23.211Z,38.70
2019-05-01T09:56:20.351Z,38.76
2019-05-01T09:57:20.335Z,36.87
2019-05-01T09:58:20.323Z,35.66
2019-05-01T09:59:20.312Z,37.51
2019-05-01T10:00:20.302Z,39.52
2019-05-01T10:01:24.533Z,37.57
2019-05-01T10:02:21.280Z,37.27
2019-05-01T10:03:20.270Z,36.44
2019-05-01T10:04:20.261Z,36.10
2019-05-01T10:05:28.656Z,36.14
2019-05-01T10:06:21.294Z,37.45
2019-05-01T10:07:23.975Z,37.92
2019-05-01T10:08:21.212Z,38.42
2019-05-01T10:09:20.202Z,38.12
2019-05-01T10:10:20.193Z,38.12
2019-05-01T10:11:20.179Z,38.02
2019-05-01T10:12:20.356Z,38.16
2019-05-01T10:13:22.338Z,38.54
2019-05-01T10:14:20.146Z,39.12
2019-05-01T10:15:20.136Z,37.82
2019-05-01T10:16:20.124Z,36.97
2019-05-01T10:17:20.114Z,37.15
2019-05-01T10:18:20.166Z,37.53
2019-05-01T10:19:20.091Z,37.12
2019-05-01T10:20:20.080Z,35.77
2019-05-01T10:21:22.518Z,36.21
2019-05-01T10:22:21.063Z,37.67
2019-05-01T10:23:20.053Z,38.82
2019-05-01T10:24:20.244Z,40.22
2019-05-01T10:25:20.027Z,38.78
2019-05-01T10:26:24.050Z,37.79
2019-05-01T10:27:21.006Z,38.37
2019-05-01T10:28:19.993Z,38.09
2019-05-01T10:29:21.488Z,37.98
2019-05-01T10:30:21.179Z,39.62
2019-05-01T10:31:19.961Z,39.84
2019-05-01T10:32:21.649Z,41.05
2019-05-01T10:33:19.940Z,40.81
2019-05-01T10:34:19.927Z,38.70
2019-05-01T10:35:21.082Z,39.12
2019-05-01T10:36:20.675Z,39.52
2019-05-01T10:37:19.900Z,39.90
2019-05-01T10:38:19.883Z,39.38
2019-05-01T10:39:20.815Z,39.78
2019-05-01T10:40:22.239Z,39.64
2019-05-01T10:41:19.854Z,39.60
2019-05-01T10:42:20.045Z,39.74
2019-05-01T10:43:19.829Z,40.95
2019-05-01T10:44:19.819Z,40.86
2019-05-01T10:45:19.808Z,41.36
2019-05-01T10:46:19.797Z,40.75
2019-05-01T10:47:19.787Z,40.48
2019-05-01T10:48:19.837Z,37.63
2019-05-01T10:49:19.782Z,37.08
2019-05-01T10:50:19.755Z,36.05
2019-05-01T10:51:19.743Z,36.00
2019-05-01T10:52:19.732Z,37.45
2019-05-01T10:53:19.722Z,37.95
2019-05-01T10:54:19.777Z,38.50
2019-05-01T10:55:19.698Z,40.04
2019-05-01T10:56:19.733Z,40.94
2019-05-01T10:57:19.679Z,40.78
2019-05-01T10:58:20.337Z,41.21
2019-05-01T10:59:19.654Z,41.61
2019-05-01T11:00:19.707Z,41.39
2019-05-01T11:01:19.632Z,40.04
2019-05-01T11:02:19.624Z,39.70
2019-05-01T11:03:19.611Z,38.95
2019-05-01T11:04:19.602Z,37.75
2019-05-01T11:05:19.587Z,37.63
2019-05-01T11:06:19.786Z,38.01
2019-05-01T11:07:19.569Z,37.41
2019-05-01T11:08:19.556Z,37.38
2019-05-01T11:09:19.544Z,37.90
2019-05-01T11:10:19.536Z,37.62
2019-05-01T11:11:19.524Z,37.28
2019-05-01T11:12:19.573Z,36.40
2019-05-01T11:13:19.500Z,37.70
2019-05-01T11:14:19.489Z,36.25
2019-05-01T11:15:19.481Z,36.85
2019-05-01T11:16:19.469Z,37.58
2019-05-01T11:17:19.457Z,36.82
2019-05-01T11:18:19.520Z,38.45
2019-05-01T11:19:19.435Z,39.04
2019-05-01T11:20:19.424Z,40.42
2019-05-01T11:21:19.415Z,38.28
2019-05-01T11:22:19.407Z,36.47
2019-05-01T11:23:19.392Z,36.58
2019-05-01T11:24:19.442Z,37.30
2019-05-01T11:25:19.372Z,37.56
2019-05-01T11:26:19.360Z,37.49
2019-05-01T11:27:19.349Z,36.08
2019-05-01T11:28:19.338Z,34.17
2019-05-01T11:29:19.328Z,32.85
2019-05-01T11:30:19.378Z,33.51
2019-05-01T11:31:19.309Z,33.62
2019-05-01T11:32:19.296Z,34.48
2019-05-01T11:33:19.283Z,34.84
2019-05-01T11:34:19.283Z,34.53
2019-05-01T11:35:19.265Z,32.53
2019-05-01T11:36:19.460Z,31.53
2019-05-01T11:37:19.247Z,30.32
2019-05-01T11:38:19.238Z,30.41
2019-05-01T11:39:19.219Z,29.54
2019-05-01T11:40:19.210Z,29.82
2019-05-01T11:41:19.199Z,29.60
2019-05-01T11:42:19.254Z,29.89
2019-05-01T11:43:19.179Z,29.66
2019-05-01T11:44:19.175Z,30.26
2019-05-01T11:45:19.161Z,28.50
2019-05-01T11:46:19.146Z,28.91
2019-05-01T11:47:19.137Z,29.30
2019-05-01T11:48:19.188Z,29.64
2019-05-01T11:49:19.114Z,29.93
2019-05-01T11:50:19.103Z,29.33
2019-05-01T11:51:19.138Z,29.74
2019-05-01T11:52:19.082Z,29.23
2019-05-01T11:53:19.074Z,29.21
2019-05-01T11:54:19.267Z,29.79
2019-05-01T11:55:19.048Z,29.50
2019-05-01T11:56:19.043Z,29.11
2019-05-01T11:57:19.025Z,29.10
2019-05-01T11:58:19.015Z,28.30
2019-05-01T11:59:19.003Z,28.33
2019-05-01T12:00:19.059Z,29.51
2019-05-01T12:01:18.984Z,29.33
2019-05-01T12:02:18.972Z,30.09
2019-05-01T12:03:18.961Z,28.61
2019-05-01T12:04:18.952Z,29.38
2019-05-01T12:05:18.946Z,29.48
2019-05-01T12:06:23.107Z,29.06
2019-05-01T12:07:18.921Z,28.69
2019-05-01T12:08:18.911Z,27.92
2019-05-01T12:09:18.901Z,28.91
2019-05-01T12:10:18.891Z,30.10
2019-05-01T12:11:18.878Z,30.13
2019-05-01T12:12:19.075Z,29.13
2019-05-01T12:13:18.859Z,29.03
2019-05-01T12:14:18.858Z,28.89
2019-05-01T12:15:18.839Z,28.79
2019-05-01T12:16:18.836Z,29.28
2019-05-01T12:17:18.816Z,29.07
2019-05-01T12:18:18.879Z,29.47
2019-05-01T12:19:18.796Z,29.16
2019-05-01T12:20:18.787Z,29.89
2019-05-01T12:21:18.823Z,31.30
2019-05-01T12:22:18.768Z,30.71
2019-05-01T12:23:18.754Z,29.75
2019-05-01T12:24:18.814Z,30.97
2019-05-01T12:25:18.736Z,29.34
2019-05-01T12:26:18.724Z,29.02
2019-05-01T12:27:18.713Z,29.64
2019-05-01T12:28:18.703Z,29.77
2019-05-01T12:29:18.695Z,31.82
2019-05-01T12:30:18.744Z,29.75
2019-05-01T12:31:18.673Z,29.93
2019-05-01T12:32:18.677Z,29.99
2019-05-01T12:33:18.651Z,29.46
2019-05-01T12:34:18.647Z,29.24
2019-05-01T12:35:18.631Z,27.45
2019-05-01T12:36:18.830Z,27.67
2019-05-01T12:37:18.619Z,27.37
2019-05-01T12:38:18.602Z,27.17
2019-05-01T12:39:18.590Z,27.57
2019-05-01T12:40:18.585Z,27.19
2019-05-01T12:41:18.569Z,28.96
2019-05-01T12:42:18.623Z,27.28
2019-05-01T12:43:18.549Z,29.17
2019-05-01T12:44:18.557Z,28.38
2019-05-01T12:45:18.530Z,27.31
2019-05-01T12:46:18.518Z,27.37
2019-05-01T12:47:18.514Z,27.57
2019-05-01T12:48:18.703Z,27.16
2019-05-01T12:49:18.492Z,27.36
2019-05-01T12:50:18.478Z,27.36
2019-05-01T12:51:18.467Z,28.03
2019-05-01T12:52:18.456Z,29.13